Time;durP1;ratioP1;P1;durP2;ratioP2;P2;SDS_P1;SDS_P2;PMS_P1;PMS_P2;Temp;Humidity;BMP_temperature;BMP_pressure;BME280_temperature;BME280_humidity;BME280_pressure;Samples;Min_cycle;Max_cycle;Signal;HPM_P1;HPM_P2
2021/04/23 00:00:42;;;;;;;8.50;4.95;;;;;;;15.97;59.19;101816.19;1777135;80;21639;-49
2021/04/23 00:03:46;;;;;;;9.35;6.15;;;;;;;15.97;59.22;101803.06;1788829;80;21152;-49
2021/04/23 00:06:25;;;;;;;8.40;5.58;;;;;;;15.95;59.30;101808.81;1783708;80;21152;-50
2021/04/23 00:09:21;;;;;;;8.55;5.70;;;;;;;15.96;59.24;101807.92;1777267;80;21140;-50
2021/04/23 00:11:53;;;;;;;7.30;5.25;;;;;;;15.93;59.24;101804.53;1780014;80;21104;-50
2021/04/23 00:14:27;;;;;;;6.03;5.30;;;;;;;15.67;60.11;101807.83;1779283;80;21187;-50
2021/04/23 00:16:56;;;;;;;7.30;5.83;;;;;;;15.61;60.38;101801.42;1715791;83;21265;-50
2021/04/23 00:19:25;;;;;;;10.00;6.30;;;;;;;15.58;60.50;101797.55;1705141;83;21625;-50
2021/04/23 00:21:53;;;;;;;10.18;5.95;;;;;;;15.57;60.58;101798.91;1710419;83;21178;-50
2021/04/23 00:24:21;;;;;;;8.38;5.55;;;;;;;15.53;60.79;101796.83;1710592;83;21122;-50
2021/04/23 00:26:50;;;;;;;8.05;5.20;;;;;;;15.52;60.85;101792.47;1710104;83;21589;-50
2021/04/23 00:29:18;;;;;;;9.75;5.28;;;;;;;15.51;61.02;101793.39;1709966;83;21563;-50
2021/04/23 00:34:35;;;;;;;8.73;6.05;;;;;;;15.50;61.18;101791.64;1710223;83;21626;-50
2021/04/23 00:37:02;;;;;;;7.12;5.08;;;;;;;15.50;61.24;101794.27;1708910;83;21190;-50
2021/04/23 00:39:31;;;;;;;6.65;5.50;;;;;;;15.48;61.39;101793.45;1708418;83;21162;-49
2021/04/23 00:41:59;;;;;;;8.28;5.90;;;;;;;15.45;61.56;101790.48;1707326;83;21118;-49
2021/04/23 00:44:27;;;;;;;10.88;5.95;;;;;;;15.44;61.57;101788.73;1707220;83;21307;-51
2021/04/23 00:46:55;;;;;;;7.70;6.45;;;;;;;15.44;61.60;101790.05;1709512;83;21174;-50
2021/04/23 00:49:23;;;;;;;9.88;5.72;;;;;;;15.43;61.63;101776.98;1714167;83;21154;-50
2021/04/23 00:51:58;;;;;;;7.12;5.70;;;;;;;15.43;61.71;101780.92;1707899;83;21225;-49
2021/04/23 00:54:33;;;;;;;12.15;5.97;;;;;;;15.44;61.92;101783.49;1771512;79;23124;-50
2021/04/23 00:57:00;;;;;;;8.55;6.40;;;;;;;15.40;62.00;101786.20;1738139;82;21176;-50
2021/04/23 00:59:30;;;;;;;10.85;7.15;;;;;;;15.37;62.10;101782.35;1736050;82;21136;-50
2021/04/23 01:02:04;;;;;;;6.42;5.78;;;;;;;15.36;62.14;101777.99;1741802;81;21140;-50
2021/04/23 01:04:32;;;;;;;7.20;5.78;;;;;;;15.35;62.17;101785.47;1736192;82;21172;-49
2021/04/23 01:06:59;;;;;;;7.17;5.87;;;;;;;15.34;62.24;101782.41;1740251;82;21153;-51
2021/04/23 01:09:29;;;;;;;9.55;6.62;;;;;;;15.33;62.32;101783.33;1736544;82;21592;-50
2021/04/23 01:12:00;;;;;;;8.25;6.53;;;;;;;15.32;62.37;101778.53;1742030;80;21169;-50
2021/04/23 01:14:28;;;;;;;6.35;5.62;;;;;;;15.32;62.34;101782.46;1732095;82;21151;-50
2021/04/23 01:16:56;;;;;;;8.48;5.65;;;;;;;15.31;62.47;101782.51;1744506;82;21604;-50
2021/04/23 01:19:26;;;;;;;9.65;5.47;;;;;;;15.31;62.50;101778.09;1733131;81;21577;-50
2021/04/23 01:21:54;;;;;;;8.85;6.20;;;;;;;15.31;62.49;101777.27;1741232;80;21585;-49
2021/04/23 01:24:22;;;;;;;12.70;6.33;;;;;;;15.32;62.41;101777.66;1737215;82;21196;-50
2021/04/23 01:26:53;;;;;;;10.23;5.80;;;;;;;15.30;62.30;101779.02;1736319;82;21148;-50
2021/04/23 01:29:23;;;;;;;9.28;5.50;;;;;;;15.32;62.27;101781.59;1733870;82;21159;-51
2021/04/23 01:31:54;;;;;;;8.73;5.35;;;;;;;15.31;62.21;101774.64;1679349;85;21607;-50
2021/04/23 01:34:36;;;;;;;11.95;5.95;;;;;;;15.31;62.11;101772.02;1680631;85;21754;-50
2021/04/23 01:37:06;;;;;;;8.80;5.15;;;;;;;15.29;62.08;101771.20;1701263;84;21176;-50
2021/04/23 01:39:36;;;;;;;9.60;5.30;;;;;;;15.26;62.06;101769.50;1693748;84;21192;-50
2021/04/23 01:42:06;;;;;;;9.65;5.83;;;;;;;15.26;62.04;101771.26;1704325;84;21172;-50
2021/04/23 01:44:34;;;;;;;8.98;5.67;;;;;;;15.27;62.03;101776.45;1698506;84;21216;-50
2021/04/23 01:47:03;;;;;;;9.50;5.28;;;;;;;15.29;61.97;101771.20;1694238;84;21572;-50
2021/04/23 01:49:32;;;;;;;9.30;5.33;;;;;;;15.31;61.81;101772.86;1700352;84;21167;-50
2021/04/23 01:52:14;;;;;;;8.28;5.65;;;;;;;15.31;61.72;101769.40;1698697;84;21164;-50
2021/04/23 01:54:42;;;;;;;7.25;5.33;;;;;;;15.32;61.70;101771.11;1691807;84;21167;-50
2021/04/23 01:57:10;;;;;;;14.03;5.85;;;;;;;15.33;61.60;101769.75;1703177;84;21143;-50
2021/04/23 01:59:40;;;;;;;9.80;5.60;;;;;;;15.35;61.49;101769.73;1687967;84;21168;-50
2021/04/23 02:02:08;;;;;;;9.30;5.30;;;;;;;15.36;61.35;101770.13;1697417;84;21148;-50
2021/04/23 02:04:37;;;;;;;13.65;5.12;;;;;;;15.36;61.27;101772.75;1692835;84;21347;-50
2021/04/23 02:07:07;;;;;;;11.78;6.25;;;;;;;15.35;61.26;101768.42;1701172;83;21132;-50
2021/04/23 02:09:35;;;;;;;9.70;5.92;;;;;;;15.34;61.37;101771.92;1689882;84;21196;-50
2021/04/23 02:12:05;;;;;;;13.90;5.28;;;;;;;15.36;61.33;101771.00;1676369;85;21173;-50
2021/04/23 02:14:32;;;;;;;10.08;5.30;;;;;;;15.36;61.28;101767.50;1695706;84;21191;-50
2021/04/23 02:17:01;;;;;;;11.48;5.75;;;;;;;15.36;61.26;101762.25;1706254;84;21156;-50
2021/04/23 02:19:29;;;;;;;8.98;5.65;;;;;;;15.37;61.21;101764.00;1694916;84;21599;-51
2021/04/23 02:21:57;;;;;;;9.80;5.20;;;;;;;15.34;61.25;101760.13;1693871;84;21180;-51
2021/04/23 02:24:25;;;;;;;12.45;5.22;;;;;;;15.34;61.34;101754.88;1699782;84;21361;-50
2021/04/23 02:26:54;;;;;;;10.50;5.83;;;;;;;15.34;61.33;101760.99;1707628;84;21164;-51
2021/04/23 02:29:22;;;;;;;9.65;4.67;;;;;;;15.34;61.33;101761.44;1703245;84;21168;-50
2021/04/23 02:31:52;;;;;;;8.98;4.62;;;;;;;15.51;60.81;101764.53;1685563;84;21176;-49
2021/04/23 02:34:23;;;;;;;8.70;4.60;;;;;;;15.61;60.48;101766.01;1698945;84;21164;-49
2021/04/23 02:36:51;;;;;;;11.65;5.92;;;;;;;15.53;60.70;101774.53;1696681;84;21168;-49
2021/04/23 02:41:56;;;;;;;9.68;4.35;;;;;;;15.66;60.45;101770.66;1807717;79;22211;-49
2021/04/23 02:44:26;;;;;;;8.95;4.35;;;;;;;15.64;60.39;101779.03;1767070;80;21179;-49
2021/04/23 02:46:55;;;;;;;12.15;5.40;;;;;;;15.67;60.32;101775.03;1770506;80;21139;-50
2021/04/23 02:49:25;;;;;;;10.58;5.40;;;;;;;15.70;60.25;101778.03;1775418;80;21131;-50
2021/04/23 02:51:55;;;;;;;13.75;5.50;;;;;;;15.72;60.26;101777.09;1768371;80;21588;-50
2021/04/23 02:54:23;;;;;;;9.83;5.20;;;;;;;15.67;60.34;101778.96;1775296;80;21136;-50
2021/04/23 02:56:50;;;;;;;10.63;4.58;;;;;;;15.72;60.24;101774.47;1772008;80;21144;-49
2021/04/23 02:59:19;;;;;;;8.50;4.25;;;;;;;15.71;60.32;101779.30;1772733;80;21610;-50
2021/04/23 03:01:49;;;;;;;10.15;4.95;;;;;;;15.70;60.43;101781.52;1771650;80;21179;-50
2021/04/23 03:04:18;;;;;;;10.95;4.62;;;;;;;15.68;60.55;101775.45;1774440;80;21147;-49
2021/04/23 03:06:46;;;;;;;14.95;5.97;;;;;;;15.66;60.59;101782.47;1775320;80;21135;-49
2021/04/23 03:09:15;;;;;;;8.38;4.60;;;;;;;15.64;60.70;101785.59;1767424;79;21152;-50
2021/04/23 03:11:43;;;;;;;9.43;5.37;;;;;;;15.65;60.76;101786.02;1778751;80;21600;-50
2021/04/23 03:14:12;;;;;;;14.50;5.53;;;;;;;15.66;60.86;101792.97;1765642;80;21568;-50
2021/04/23 03:16:41;;;;;;;9.85;5.67;;;;;;;15.70;60.89;101787.21;1776373;80;21132;-50
2021/04/23 03:19:14;;;;;;;10.80;5.12;;;;;;;15.72;60.81;101786.72;1770409;80;21301;-50
2021/04/23 03:21:42;;;;;;;10.03;5.10;;;;;;;15.75;60.74;101782.24;1772287;80;21164;-49
2021/04/23 03:24:12;;;;;;;9.55;4.95;;;;;;;15.78;60.68;101787.42;1766289;80;21569;-49
2021/04/23 03:26:41;;;;;;;9.23;5.42;;;;;;;15.82;60.61;101790.38;1765658;80;21573;-49
2021/04/23 03:29:11;;;;;;;16.90;5.30;;;;;;;15.85;60.56;101788.09;1778380;80;21541;-48
2021/04/23 03:31:39;;;;;;;13.08;5.47;;;;;;;15.88;60.38;101790.20;1768482;80;21148;-49
2021/04/23 03:34:07;;;;;;;14.15;4.87;;;;;;;15.90;60.32;101791.02;1773535;80;21104;-49
2021/04/23 03:36:35;;;;;;;10.35;5.03;;;;;;;15.92;60.27;101781.34;1773572;80;21120;-49
2021/04/23 03:39:05;;;;;;;12.47;5.15;;;;;;;15.95;60.17;101782.55;1768499;80;21564;-49
2021/04/23 03:41:33;;;;;;;15.30;5.28;;;;;;;15.95;60.15;101778.62;1766697;80;21128;-49
2021/04/23 03:44:02;;;;;;;10.48;4.75;;;;;;;15.94;60.06;101778.22;1756509;81;21160;-49
2021/04/23 03:46:29;;;;;;;11.35;5.50;;;;;;;15.94;60.07;101776.05;1759440;81;21549;-49
2021/04/23 03:48:58;;;;;;;10.38;4.80;;;;;;;15.96;60.03;101781.67;1757887;81;21176;-49
2021/04/23 03:51:26;;;;;;;16.95;5.92;;;;;;;15.98;60.03;101791.67;1752388;81;21144;-48
2021/04/23 03:53:53;;;;;;;11.57;5.65;;;;;;;16.02;60.00;101802.94;1770876;81;21171;-49
2021/04/23 03:56:22;;;;;;;9.08;3.87;;;;;;;16.05;59.92;101799.77;1758968;81;21286;-49
2021/04/23 03:58:52;;;;;;;9.23;4.08;;;;;;;16.08;59.81;101795.77;1718831;83;21145;-49
2021/04/23 04:01:23;;;;;;;13.40;4.87;;;;;;;16.10;59.76;101791.33;1761594;81;21306;-49
2021/04/23 04:03:52;;;;;;;11.18;5.58;;;;;;;16.12;59.71;101789.52;1754136;81;21144;-50
2021/04/23 04:06:21;;;;;;;18.40;7.92;;;;;;;16.15;59.71;101796.02;1761908;81;21188;-49
2021/04/23 04:08:52;;;;;;;18.32;6.37;;;;;;;16.14;59.59;101794.28;1757907;81;21544;-49
2021/04/23 04:11:20;;;;;;;10.45;5.08;;;;;;;16.15;59.63;101789.45;1754577;81;21557;-49
2021/04/23 04:13:50;;;;;;;10.38;4.15;;;;;;;16.16;59.63;101797.72;1760462;81;21148;-49
2021/04/23 04:16:18;;;;;;;12.70;4.33;;;;;;;16.19;59.75;101809.47;1758889;81;21109;-49
2021/04/23 04:18:46;;;;;;;10.88;4.47;;;;;;;16.25;59.67;101807.98;1755335;81;21191;-48
2021/04/23 04:21:16;;;;;;;11.60;4.42;;;;;;;16.29;59.45;101808.74;1762378;81;21307;-49
2021/04/23 04:23:44;;;;;;;9.95;4.03;;;;;;;16.31;59.31;101810.88;1755418;80;21541;-49
2021/04/23 04:26:13;;;;;;;11.60;4.83;;;;;;;16.30;59.37;101806.06;1759355;81;21200;-49
2021/04/23 04:28:41;;;;;;;12.93;5.17;;;;;;;16.29;59.47;101804.36;1758354;81;21172;-49
2021/04/23 04:31:10;;;;;;;12.05;5.25;;;;;;;16.34;59.45;101807.30;1758902;81;21168;-49
2021/04/23 04:33:40;;;;;;;9.20;4.53;;;;;;;16.39;59.37;101793.56;1764255;81;21144;-50
2021/04/23 04:36:08;;;;;;;10.43;4.12;;;;;;;16.43;59.18;101798.69;1756514;81;21183;-51
2021/04/23 04:38:36;;;;;;;9.58;4.47;;;;;;;16.48;59.12;101799.87;1762864;81;21172;-49
2021/04/23 04:41:05;;;;;;;10.08;4.47;;;;;;;16.52;58.98;101792.34;1755202;81;21156;-49
2021/04/23 04:43:33;;;;;;;13.58;5.25;;;;;;;16.55;58.89;101794.89;1760253;80;21569;-50
2021/04/23 04:46:01;;;;;;;9.10;4.95;;;;;;;16.58;58.82;101793.47;1770840;80;21167;-49
2021/04/23 04:48:31;;;;;;;9.30;4.30;;;;;;;16.61;58.70;101789.45;1764900;80;21113;-48
2021/04/23 04:51:00;;;;;;;7.85;3.47;;;;;;;16.62;58.59;101788.53;1766384;80;21544;-49
2021/04/23 04:53:30;;;;;;;6.92;4.00;;;;;;;16.62;58.65;101791.16;1769491;80;21290;-48
2021/04/23 04:55:58;;;;;;;14.70;4.97;;;;;;;16.65;58.68;101797.66;1740138;80;21581;-49
2021/04/23 04:58:30;;;;;;;10.53;4.78;;;;;;;16.69;58.77;101796.66;1770287;80;21152;-49
2021/04/23 05:00:59;;;;;;;6.53;4.03;;;;;;;16.74;58.62;101790.78;1703873;83;21179;-49
2021/04/23 05:03:26;;;;;;;7.42;3.80;;;;;;;16.78;58.44;101792.41;1668458;85;21226;-49
2021/04/23 05:05:55;;;;;;;11.35;4.85;;;;;;;16.79;58.37;101787.13;1671788;85;21195;-48
2021/04/23 05:08:22;;;;;;;6.97;4.53;;;;;;;16.83;58.34;101781.31;1713606;82;21408;-48
2021/04/23 05:10:51;;;;;;;8.28;4.20;;;;;;;16.86;58.48;101787.77;1670882;85;21265;-49
2021/04/23 05:13:18;;;;;;;10.58;4.17;;;;;;;16.90;58.37;101786.31;1668909;85;21163;-49
2021/04/23 05:15:46;;;;;;;10.10;4.15;;;;;;;16.95;58.34;101787.05;1703952;83;21229;-48
2021/04/23 05:18:14;;;;;;;10.70;3.70;;;;;;;17.00;58.28;101784.28;1668114;85;21183;-50
2021/04/23 05:20:42;;;;;;;7.45;4.03;;;;;;;17.08;58.12;101780.95;1665022;85;21206;-49
2021/04/23 05:23:10;;;;;;;8.98;4.35;;;;;;;17.12;58.12;101786.95;1669282;85;21167;-50
2021/04/23 05:25:38;;;;;;;13.98;4.92;;;;;;;17.17;57.99;101783.70;1670746;85;21781;-50
2021/04/23 05:28:07;;;;;;;11.93;4.20;;;;;;;17.23;57.71;101785.69;1667289;85;21227;-51
2021/04/23 05:30:36;;;;;;;12.98;5.10;;;;;;;17.30;57.55;101784.59;1703923;83;21185;-48
2021/04/23 05:33:06;;;;;;;6.75;3.85;;;;;;;17.34;57.37;101787.97;1669336;85;21187;-49
2021/04/23 05:35:34;;;;;;;8.50;4.17;;;;;;;17.37;57.30;101783.45;1670521;85;21268;-49
2021/04/23 05:38:02;;;;;;;6.58;3.37;;;;;;;17.41;57.24;101785.10;1670482;85;21147;-49
2021/04/23 05:40:39;;;;;;;10.08;3.80;;;;;;;17.36;57.31;101785.70;1670501;85;21631;-48
2021/04/23 05:43:07;;;;;;;6.80;3.83;;;;;;;17.44;57.10;101783.67;1706958;83;21459;-49
2021/04/23 05:45:37;;;;;;;6.40;3.60;;;;;;;17.57;56.75;101785.02;1670954;85;21150;-48
2021/04/23 05:48:06;;;;;;;9.93;3.10;;;;;;;17.65;56.43;101788.24;1674512;84;21325;-49
2021/04/23 05:50:36;;;;;;;8.45;3.30;;;;;;;17.70;56.21;101788.92;1708517;83;21214;-49
2021/04/23 05:53:05;;;;;;;6.65;3.40;;;;;;;17.73;56.18;101790.15;1670525;85;21189;-49
2021/04/23 05:55:34;;;;;;;7.47;4.05;;;;;;;17.78;56.10;101785.56;1670544;85;21512;-49
2021/04/23 05:58:03;;;;;;;10.55;4.00;;;;;;;17.85;56.00;101783.58;1686764;84;21160;-48
2021/04/23 06:00:33;;;;;;;8.43;3.33;;;;;;;17.92;55.84;101778.96;1710869;83;21153;-48
2021/04/23 06:03:03;;;;;;;8.95;3.25;;;;;;;17.97;55.56;101780.98;1704968;83;21168;-48
2021/04/23 06:05:32;;;;;;;6.85;3.58;;;;;;;18.02;55.40;101780.34;1697365;83;21160;-48
2021/04/23 06:08:03;;;;;;;9.35;4.28;;;;;;;18.05;55.41;101780.25;1707020;83;21208;-50
2021/04/23 06:10:31;;;;;;;12.23;5.12;;;;;;;18.11;55.31;101774.76;1714280;83;21160;-50
2021/04/23 06:12:59;;;;;;;10.95;3.55;;;;;;;18.19;55.11;101781.92;1707862;83;21306;-50
2021/04/23 06:15:27;;;;;;;13.65;4.90;;;;;;;18.27;54.89;101774.59;1706213;83;21207;-50
2021/04/23 06:17:55;;;;;;;8.15;3.70;;;;;;;18.34;54.83;101777.41;1710069;83;21148;-50
2021/04/23 06:20:29;;;;;;;6.62;3.30;;;;;;;18.40;54.50;101779.33;1702424;83;21168;-50
2021/04/23 06:22:57;;;;;;;8.93;3.60;;;;;;;18.46;54.30;101776.97;1713923;83;21160;-50
2021/04/23 06:25:26;;;;;;;12.23;3.77;;;;;;;18.48;54.25;101776.45;1707687;83;21294;-50
2021/04/23 06:27:54;;;;;;;12.55;4.00;;;;;;;18.49;54.10;101778.16;1702908;83;21321;-48
2021/04/23 06:30:27;;;;;;;8.60;4.10;;;;;;;18.48;54.10;101781.73;1709258;83;21156;-49
2021/04/23 06:32:58;;;;;;;8.33;3.90;;;;;;;18.46;54.04;101778.29;1706706;83;21156;-49
2021/04/23 06:35:30;;;;;;;6.10;3.80;;;;;;;18.45;54.02;101783.14;1669430;85;21155;-49
2021/04/23 06:37:57;;;;;;;10.40;4.03;;;;;;;18.44;53.93;101787.55;1676237;85;21155;-49
2021/04/23 06:40:25;;;;;;;14.58;3.77;;;;;;;18.39;54.00;101781.58;1675957;85;21639;-50
2021/04/23 06:42:54;;;;;;;11.38;4.30;;;;;;;18.35;54.04;101788.33;1686950;84;21162;-49
2021/04/23 06:45:23;;;;;;;8.15;3.55;;;;;;;18.10;54.76;101794.09;1725253;83;21201;-49
2021/04/23 06:47:51;;;;;;;10.40;4.92;;;;;;;18.24;54.43;101795.77;1725068;83;21148;-48
2021/04/23 06:50:22;;;;;;;10.63;4.35;;;;;;;18.27;54.33;101798.30;1724984;83;21579;-49
2021/04/23 06:52:50;;;;;;;5.65;3.47;;;;;;;18.26;54.28;101793.97;1725041;83;21239;-48
2021/04/23 06:55:19;;;;;;;9.40;3.52;;;;;;;18.23;54.21;101794.92;1725079;83;21164;-49
2021/04/23 06:57:48;;;;;;;7.10;3.22;;;;;;;18.18;54.27;101796.86;1725021;83;21220;-49
2021/04/23 07:00:23;;;;;;;10.88;4.45;;;;;;;18.10;54.38;101795.41;1701530;83;21168;-49
2021/04/23 07:02:56;;;;;;;6.60;3.83;;;;;;;18.05;54.52;101797.38;1796838;77;23193;-48
2021/04/23 07:05:25;;;;;;;12.47;4.55;;;;;;;17.90;54.77;101797.45;1744128;81;21184;-49
2021/04/23 07:07:53;;;;;;;10.93;4.90;;;;;;;17.80;55.36;101797.38;1736746;81;21133;-49
2021/04/23 07:10:24;;;;;;;8.73;3.87;;;;;;;17.74;55.95;101807.64;1753860;81;21148;-49
2021/04/23 07:12:51;;;;;;;11.53;4.65;;;;;;;17.70;56.14;101802.08;1775507;80;21113;-49
2021/04/23 07:15:23;;;;;;;9.95;4.03;;;;;;;17.65;56.21;101796.14;1734700;81;21123;-49
2021/04/23 07:17:54;;;;;;;13.75;4.92;;;;;;;17.62;56.25;101794.08;1733460;81;21172;-50
2021/04/23 07:20:25;;;;;;;12.60;4.95;;;;;;;17.56;56.41;101795.13;1748808;81;21164;-50
2021/04/23 07:22:53;;;;;;;10.95;5.03;;;;;;;17.58;56.48;101801.19;1730751;81;21147;-50
2021/04/23 07:25:23;;;;;;;10.75;4.50;;;;;;;17.58;56.26;101799.87;1760276;81;21168;-50
2021/04/23 07:27:51;;;;;;;14.10;5.17;;;;;;;17.55;56.47;101798.69;1747845;81;21140;-50
2021/04/23 07:30:24;;;;;;;9.25;5.00;;;;;;;17.56;56.62;101799.52;1760548;81;21203;-49
2021/04/23 07:32:52;;;;;;;10.88;5.08;;;;;;;17.58;56.57;101802.51;1747669;81;21151;-50
2021/04/23 07:35:20;;;;;;;13.48;5.37;;;;;;;17.62;56.41;101795.39;1756506;81;21196;-50
2021/04/23 07:37:48;;;;;;;12.10;4.50;;;;;;;17.63;56.23;101809.81;1761665;80;21155;-49
2021/04/23 07:40:18;;;;;;;9.10;4.65;;;;;;;17.66;56.05;101801.79;1750818;81;21148;-50
2021/04/23 07:42:47;;;;;;;13.10;4.92;;;;;;;17.66;56.15;101807.05;1744456;81;21168;-49
2021/04/23 07:45:16;;;;;;;9.20;4.47;;;;;;;17.67;56.03;101811.42;1744867;81;21183;-49
2021/04/23 07:47:45;;;;;;;10.05;4.83;;;;;;;17.68;56.00;101803.08;1769467;80;21150;-49
2021/04/23 07:50:17;;;;;;;11.50;5.10;;;;;;;17.67;56.03;101804.84;1745826;81;21144;-49
2021/04/23 07:52:46;;;;;;;9.98;4.65;;;;;;;17.67;56.07;101800.89;1756514;81;21172;-49
2021/04/23 07:55:15;;;;;;;14.05;4.12;;;;;;;17.69;56.05;101795.12;1745146;81;21203;-50
2021/04/23 07:57:47;;;;;;;15.63;4.85;;;;;;;17.71;56.08;101790.66;1742321;81;21627;-49
2021/04/23 08:00:17;;;;;;;13.78;4.65;;;;;;;17.74;55.98;101794.48;1746250;81;21183;-50
2021/04/23 08:02:45;;;;;;;14.40;4.60;;;;;;;17.77;55.87;101786.49;1739278;81;21195;-50
2021/04/23 08:05:16;;;;;;;12.20;5.12;;;;;;;17.80;55.72;101789.00;1732223;82;21191;-48
2021/04/23 08:07:46;;;;;;;8.00;4.45;;;;;;;17.80;55.74;101786.37;1732320;82;21193;-50
2021/04/23 08:10:17;;;;;;;9.30;3.83;;;;;;;17.82;55.87;101777.98;1715231;82;21613;-49
2021/04/23 08:12:48;;;;;;;9.80;4.05;;;;;;;17.86;55.86;101780.92;1699236;83;21599;-50
2021/04/23 08:15:18;;;;;;;8.28;4.40;;;;;;;17.91;55.85;101789.95;1749214;82;21593;-50
2021/04/23 08:17:48;;;;;;;8.10;4.20;;;;;;;17.96;55.86;101797.23;1733480;82;21294;-50
2021/04/23 08:20:17;;;;;;;10.65;4.95;;;;;;;18.05;55.73;101806.59;1729267;82;21861;-49
2021/04/23 08:22:45;;;;;;;9.45;4.33;;;;;;;18.12;55.69;101811.57;1795880;79;21172;-49
2021/04/23 08:25:16;;;;;;;8.00;4.78;;;;;;;18.22;55.52;101825.25;1789011;78;21187;-50
2021/04/23 08:27:47;;;;;;;7.85;4.47;;;;;;;18.32;55.50;101820.08;1789112;79;21199;-49
2021/04/23 08:30:17;;;;;;;11.00;4.70;;;;;;;18.41;55.38;101813.13;1754685;80;21144;-49
2021/04/23 08:32:45;;;;;;;12.78;5.35;;;;;;;18.50;55.24;101808.88;1793476;79;21156;-50
2021/04/23 08:35:14;;;;;;;7.58;4.53;;;;;;;18.56;54.99;101813.92;1785894;79;21168;-49
2021/04/23 08:37:43;;;;;;;8.88;5.03;;;;;;;18.66;54.80;101808.70;1796546;79;21140;-49
2021/04/23 08:40:14;;;;;;;10.38;4.28;;;;;;;18.72;54.80;101804.50;1785627;79;21548;-50
2021/04/23 08:42:43;;;;;;;10.63;4.78;;;;;;;18.80;54.51;101797.15;1736847;80;21192;-50
2021/04/23 08:45:18;;;;;;;8.93;4.67;;;;;;;18.88;54.35;101800.34;1787296;79;21144;-50
2021/04/23 08:47:48;;;;;;;13.85;5.10;;;;;;;18.94;54.33;101804.05;1697751;83;21612;-50
2021/04/23 08:50:20;;;;;;;11.03;4.78;;;;;;;19.03;54.04;101798.88;1701027;84;21664;-50
2021/04/23 08:52:49;;;;;;;8.68;4.53;;;;;;;19.10;53.82;101793.28;1693267;84;21346;-50
2021/04/23 08:55:21;;;;;;;11.78;4.47;;;;;;;19.17;53.65;101785.53;1700682;84;21758;-50
2021/04/23 08:57:51;;;;;;;12.85;5.58;;;;;;;19.25;53.40;101783.88;1700902;84;21164;-51
2021/04/23 09:00:21;;;;;;;7.20;4.20;;;;;;;19.27;53.12;101778.95;1674955;85;21184;-50
2021/04/23 09:02:49;;;;;;;10.15;5.22;;;;;;;19.28;53.09;101783.31;1681174;85;21679;-49
2021/04/23 09:05:17;;;;;;;8.70;4.30;;;;;;;19.28;52.93;101782.00;1737280;82;21188;-50
2021/04/23 09:08:04;;;;;;;9.70;4.90;;;;;;;19.30;53.02;101779.29;1728055;82;21303;-50
2021/04/23 09:10:36;;;;;;;9.48;4.80;;;;;;;19.34;53.04;101776.50;1731128;82;21687;-50
2021/04/23 09:13:15;;;;;;;13.28;5.08;;;;;;;19.39;52.92;101785.06;1734735;82;21240;-50
2021/04/23 09:15:46;;;;;;;10.18;5.08;;;;;;;19.44;52.60;101788.38;1727788;82;21353;-50
2021/04/23 09:18:17;;;;;;;8.68;4.83;;;;;;;19.48;52.32;101794.38;1710030;82;21171;-50
2021/04/23 09:20:48;;;;;;;10.48;5.03;;;;;;;19.48;52.12;101792.61;1731968;82;21188;-50
2021/04/23 09:23:22;;;;;;;10.82;5.12;;;;;;;19.44;52.04;101787.52;1771484;79;22992;-50
2021/04/23 09:25:56;;;;;;;11.35;5.03;;;;;;;19.33;52.19;101787.09;1741422;82;21156;-48
2021/04/23 09:28:39;;;;;;;10.53;4.67;;;;;;;19.26;52.42;101782.52;1734133;82;21152;-49
2021/04/23 09:31:30;;;;;;;13.95;5.30;;;;;;;19.18;52.49;101781.98;1738537;82;21177;-50
2021/04/23 09:34:04;;;;;;;8.20;5.00;;;;;;;19.12;52.63;101783.55;1694818;84;21189;-50
2021/04/23 09:36:46;;;;;;;8.98;4.90;;;;;;;19.07;52.75;101773.64;1691860;84;21176;-50
2021/04/23 09:39:24;;;;;;;12.20;5.47;;;;;;;19.02;52.81;101775.59;1694982;84;21196;-50
2021/04/23 09:42:09;;;;;;;9.25;5.00;;;;;;;18.93;52.96;101776.42;1686340;84;21187;-50
2021/04/23 09:44:48;;;;;;;13.30;5.40;;;;;;;18.84;53.09;101773.69;1686419;84;21295;-51
2021/04/23 09:47:19;;;;;;;16.23;5.80;;;;;;;18.76;53.24;101777.55;1686408;84;21184;-50
2021/04/23 09:49:58;;;;;;;9.93;5.40;;;;;;;18.69;53.56;101784.86;1686484;84;21171;-50
2021/04/23 09:52:32;;;;;;;15.60;5.40;;;;;;;18.69;53.66;101784.86;1819140;77;22913;-50
2021/04/23 09:55:03;;;;;;;11.80;5.47;;;;;;;18.62;53.67;101793.91;1817123;78;21567;-49
2021/04/23 10:00:11;;;;;;;13.43;5.33;;;;;;;18.58;54.41;101773.86;1771586;79;22609;-50
2021/04/23 10:02:41;;;;;;;9.50;4.55;;;;;;;18.55;54.64;101776.59;1732055;82;21612;-50
2021/04/23 10:05:11;;;;;;;10.60;5.83;;;;;;;18.59;54.56;101779.52;1741338;82;21101;-50
2021/04/23 10:07:39;;;;;;;12.30;6.12;;;;;;;18.65;54.81;101777.96;1737043;82;21164;-50
2021/04/23 10:10:11;;;;;;;9.23;5.25;;;;;;;18.72;54.74;101776.81;1737458;82;21161;-49
2021/04/23 10:12:54;;;;;;;10.95;5.25;;;;;;;18.82;54.41;101767.62;1741298;82;21145;-50
2021/04/23 10:15:35;;;;;;;14.50;6.30;;;;;;;18.91;54.21;101764.63;1736143;82;21155;-50
2021/04/23 10:18:13;;;;;;;12.37;5.90;;;;;;;18.99;54.02;101759.03;1705640;83;21585;-50
2021/04/23 10:20:48;;;;;;;13.80;5.50;;;;;;;19.11;53.88;101754.12;1771597;79;23068;-50
2021/04/23 10:23:21;;;;;;;16.23;5.67;;;;;;;19.13;53.91;101749.64;1741271;82;21145;-49
2021/04/23 10:25:51;;;;;;;9.00;5.17;;;;;;;19.23;53.54;101755.38;1735046;82;21263;-50
2021/04/23 10:28:21;;;;;;;10.82;6.10;;;;;;;19.29;53.35;101748.08;1741342;82;21164;-50
2021/04/23 10:30:52;;;;;;;12.17;6.90;;;;;;;19.37;53.32;101743.36;1736919;82;21140;-50
2021/04/23 10:33:23;;;;;;;12.30;6.15;;;;;;;19.48;53.43;101739.81;1738266;82;21183;-51
2021/04/23 10:35:55;;;;;;;11.38;5.10;;;;;;;19.54;54.00;101739.17;1745386;82;21776;-50
2021/04/23 10:38:26;;;;;;;;;;;;;;;19.58;54.17;101735.47;1740790;82;21567;-48
2021/04/23 10:41:00;;;;;;;7.97;5.70;;;;;;;19.71;54.03;101723.42;1685771;83;20144;-51
2021/04/23 10:43:30;;;;;;;27.62;6.42;;;;;;;19.85;53.04;101730.27;1709598;83;21243;-50
2021/04/23 10:46:10;;;;;;;6.10;4.72;;;;;;;19.96;52.26;101725.37;1706104;83;21172;-51
2021/04/23 10:48:45;;;;;;;6.28;4.78;;;;;;;20.08;51.96;101727.45;1706097;83;21175;-50
2021/04/23 10:51:25;;;;;;;8.00;5.55;;;;;;;20.22;51.99;101739.60;1709680;83;21179;-49
2021/04/23 10:53:56;;;;;;;6.58;5.30;;;;;;;20.48;50.25;101739.27;1708961;83;21192;-51
2021/04/23 10:56:37;;;;;;;6.25;4.92;;;;;;;20.41;48.84;101743.58;1706398;83;21196;-50
2021/04/23 10:59:09;;;;;;;6.75;5.05;;;;;;;20.45;47.41;101742.50;1709051;83;21187;-49
2021/04/23 11:01:39;;;;;;;6.58;5.15;;;;;;;20.88;46.37;101741.70;1705648;83;21137;-50
2021/04/23 11:04:11;;;;;;;6.40;5.72;;;;;;;20.93;45.84;101739.70;1709599;83;21164;-49
2021/04/23 11:06:42;;;;;;;6.47;5.95;;;;;;;20.94;45.99;101741.41;1711173;83;21257;-49
2021/04/23 11:09:14;;;;;;;8.15;7.35;;;;;;;20.98;46.26;101742.97;1708653;83;21197;-50
2021/04/23 11:11:43;;;;;;;7.40;6.72;;;;;;;20.99;46.90;101743.38;1708124;83;21128;-50
2021/04/23 11:14:28;;;;;;;7.65;6.95;;;;;;;20.94;47.39;101746.70;1707385;83;21595;-50
2021/04/23 11:17:20;;;;;;;7.67;6.97;;;;;;;21.22;46.08;101738.75;1704705;83;21175;-49
2021/04/23 11:19:54;;;;;;;8.20;6.15;;;;;;;21.45;45.53;101737.12;1807518;79;23670;-49
2021/04/23 11:22:27;;;;;;;7.62;7.00;;;;;;;21.49;45.35;101747.48;1773363;80;21217;-49
2021/04/23 11:25:11;;;;;;;8.33;6.90;;;;;;;20.62;46.54;101734.18;1686042;84;21178;-49
2021/04/23 11:28:08;;;;;;;7.20;6.50;;;;;;;20.39;47.39;101723.83;1686051;84;21154;-49
2021/04/23 11:31:03;;;;;;;7.35;6.75;;;;;;;20.31;46.98;101710.12;1810633;79;23483;-51
2021/04/23 11:33:52;;;;;;;8.13;7.30;;;;;;;20.13;47.18;101718.37;1711966;83;21145;-51
2021/04/23 11:36:36;;;;;;;8.08;7.20;;;;;;;20.05;47.88;101713.91;1722176;83;21172;-50
2021/04/23 11:39:10;;;;;;;8.08;7.28;;;;;;;20.05;47.99;101717.87;1678460;85;21184;-50
2021/04/23 11:42:12;;;;;;;9.65;7.67;;;;;;;20.14;48.53;101713.96;1774307;79;23053;-48
2021/04/23 11:44:51;;;;;;;10.60;6.85;;;;;;;20.09;48.87;101715.98;1744590;82;21180;-49
2021/04/23 11:47:33;;;;;;;7.05;6.35;;;;;;;20.12;48.04;101714.50;1723792;81;21195;-48